createdAt,value
2022-10-03T08:13:02.479Z,102427.13
2022-10-03T08:16:16.363Z,102433.22
2022-10-03T08:19:10.513Z,102437.03
2022-10-03T08:22:17.320Z,102439.84
2022-10-03T08:25:29.698Z,102443.75
2022-10-03T08:28:51.823Z,102443.28
2022-10-03T08:32:04.682Z,102435.19
2022-10-03T08:35:08.317Z,102444.19
2022-10-03T08:38:33.477Z,102456.97
2022-10-03T08:41:37.566Z,102464.38
2022-10-03T08:45:08.110Z,102457.72
2022-10-03T08:47:53.271Z,102457.34
2022-10-03T08:51:12.639Z,102446.25
2022-10-03T08:54:13.811Z,102446.53
2022-10-03T08:57:19.998Z,102444.47
2022-10-03T09:00:05.167Z,102447.44
2022-10-03T09:03:33.367Z,102448.66
2022-10-03T09:06:29.214Z,102446.28
2022-10-03T09:09:51.558Z,102448.47
2022-10-03T09:13:14.344Z,102450.94
2022-10-03T09:16:20.695Z,102439.25
2022-10-03T09:19:45.022Z,102448.81
2022-10-03T09:22:49.786Z,102443.56
2022-10-03T09:25:50.349Z,102433.28
2022-10-03T09:28:53.690Z,102450.78
2022-10-03T09:32:18.942Z,102444.31
2022-10-03T09:35:33.571Z,102438.47
2022-10-03T09:39:05.821Z,102442.28
2022-10-03T09:42:09.694Z,102439.88
2022-10-03T09:45:16.338Z,102439.09
2022-10-03T09:48:26.356Z,102437.75
2022-10-03T09:51:25.336Z,102418.56
2022-10-03T09:54:44.165Z,102420.50
2022-10-03T09:57:51.889Z,102432.13
2022-10-03T10:01:05.821Z,102435.63
2022-10-03T10:04:12.369Z,102429.50
2022-10-03T10:07:35.299Z,102422.13
2022-10-03T10:10:46.944Z,102421.50
2022-10-03T10:14:07.625Z,102411.19
2022-10-03T10:17:26.629Z,102403.94
2022-10-03T10:20:39.360Z,102417.31
2022-10-03T10:23:30.163Z,102415.38
2022-10-03T10:26:54.092Z,102414.06
2022-10-03T10:29:50.960Z,102410.75
2022-10-03T10:33:06.899Z,102410.94
2022-10-03T10:36:27.915Z,102406.81
2022-10-03T10:40:02.118Z,102413.53
2022-10-03T10:43:10.799Z,102406.28
2022-10-03T10:46:33.364Z,102394.91
2022-10-03T10:49:27.798Z,102383.38
2022-10-03T10:52:50.603Z,102394.47
2022-10-03T10:56:00.473Z,102387.50
2022-10-03T10:59:05.572Z,102387.47
2022-10-03T11:02:23.137Z,102384.50
2022-10-03T11:05:32.144Z,102370.47
2022-10-03T11:08:59.840Z,102366.13
2022-10-03T11:11:59.776Z,102369.91
2022-10-03T11:15:03.493Z,102368.38
2022-10-03T11:18:08.321Z,102366.91
2022-10-03T11:21:08.393Z,102359.09
2022-10-03T11:24:19.367Z,102364.03
2022-10-03T11:27:32.385Z,102353.00
2022-10-03T11:30:17.215Z,102351.41
2022-10-03T11:33:05.325Z,102357.22
2022-10-03T11:36:17.943Z,102360.69
2022-10-03T11:39:42.110Z,102357.31
2022-10-03T11:42:45.327Z,102356.50
2022-10-03T11:45:42.864Z,102359.19
2022-10-03T11:48:42.642Z,102352.31
2022-10-03T11:51:42.278Z,102356.66
2022-10-03T11:54:34.183Z,102356.56
2022-10-03T11:57:30.697Z,102354.59
2022-10-03T12:00:20.561Z,102366.41
2022-10-03T12:03:34.768Z,102358.06
2022-10-03T12:06:59.749Z,102348.25
2022-10-03T12:10:02.948Z,102356.38
2022-10-03T12:12:55.246Z,102345.53
2022-10-03T12:15:46.261Z,102345.38
2022-10-03T12:18:55.078Z,102338.50
2022-10-03T12:21:43.577Z,102335.78
2022-10-03T12:24:34.139Z,102331.53
2022-10-03T12:27:40.136Z,102332.41
2022-10-03T12:30:31.441Z,102336.16
2022-10-03T12:33:40.402Z,102333.06
2022-10-03T12:36:49.264Z,102315.75
2022-10-03T12:39:51.520Z,102322.78
2022-10-03T12:42:46.958Z,102330.25
2022-10-03T12:45:48.512Z,102327.69
2022-10-03T12:48:59.032Z,102324.78
2022-10-03T12:51:54.210Z,102315.97
2022-10-03T12:54:49.873Z,102319.00
2022-10-03T12:58:01.869Z,102309.44
2022-10-03T13:01:25.035Z,102315.25
2022-10-03T13:04:38.256Z,102304.94
2022-10-03T13:07:28.436Z,102303.25
2022-10-03T13:10:42.332Z,102298.53
2022-10-03T13:13:49.762Z,102297.03
2022-10-03T13:16:45.418Z,102299.84
2022-10-03T13:20:10.181Z,102300.31
2022-10-03T13:23:07.658Z,102287.50
2022-10-03T13:26:08.862Z,102283.16
2022-10-03T13:29:26.381Z,102275.47
2022-10-03T13:32:26.561Z,102277.88
2022-10-03T13:35:41.334Z,102272.94
2022-10-03T13:38:46.826Z,102268.00
2022-10-03T13:41:45.712Z,102260.09
2022-10-03T13:44:50.195Z,102260.34
2022-10-03T13:47:52.102Z,102259.09
2022-10-03T13:51:02.416Z,102254.22
2022-10-03T13:53:59.923Z,102234.06
2022-10-03T13:57:08.075Z,102243.25
2022-10-03T13:59:53.314Z,102227.81
2022-10-03T14:02:44.512Z,102234.69
2022-10-03T14:05:32.977Z,102217.41
2022-10-03T14:08:39.538Z,102233.56
2022-10-03T14:11:44.350Z,102228.56
2022-10-03T14:14:54.057Z,102222.19
2022-10-03T14:17:46.560Z,102225.84
2022-10-03T14:20:37.561Z,102222.84
2022-10-03T14:23:29.307Z,102220.66
2022-10-03T14:26:29.430Z,102207.78
2022-10-03T14:29:43.037Z,102216.59
2022-10-03T14:32:59.766Z,102212.38
2022-10-03T14:36:06.557Z,102208.13
2022-10-03T14:39:09.814Z,102198.50
2022-10-03T14:41:54.705Z,102198.25
2022-10-03T14:44:46.139Z,102200.16
2022-10-03T14:47:42.752Z,102198.50
2022-10-03T14:50:31.326Z,102204.88
2022-10-03T14:53:27.161Z,102192.44
2022-10-03T14:56:14.286Z,102197.25
2022-10-03T14:59:03.329Z,102186.16
2022-10-03T15:01:52.640Z,102184.47
2022-10-03T15:04:41.841Z,102186.78
2022-10-03T15:07:39.947Z,102177.25
2022-10-03T15:10:27.872Z,102172.31
2022-10-03T15:13:19.084Z,102172.19
2022-10-03T15:16:05.504Z,102181.13
2022-10-03T15:18:58.409Z,102167.38
2022-10-03T15:21:46.495Z,102167.72
2022-10-03T15:24:35.253Z,102164.44
2022-10-03T15:27:23.315Z,102171.78
2022-10-03T15:30:20.569Z,102155.03
2022-10-03T15:33:17.447Z,102154.91
2022-10-03T15:36:22.725Z,102154.78
2022-10-03T15:39:23.212Z,102154.63
2022-10-03T15:42:08.264Z,102138.81
2022-10-03T15:44:59.137Z,102145.19
2022-10-03T15:47:46.542Z,102146.72
2022-10-03T15:50:40.842Z,102143.34
2022-10-03T15:53:36.538Z,102141.44
2022-10-03T15:56:44.976Z,102127.53
2022-10-03T15:59:43.520Z,102120.19
2022-10-03T16:02:39.846Z,102127.25
2022-10-03T16:05:27.390Z,102124.97
2022-10-03T16:08:21.293Z,102110.72
2022-10-03T16:11:17.387Z,102107.09
2022-10-03T16:14:27.341Z,102109.88
2022-10-03T16:17:28.874Z,102110.09
2022-10-03T16:20:44.960Z,102109.75
2022-10-03T16:23:38.293Z,102113.59
2022-10-03T16:26:35.614Z,102106.72
2022-10-03T16:29:34.952Z,102102.09
2022-10-03T16:32:27.732Z,102105.81
2022-10-03T16:35:27.961Z,102106.34
2022-10-03T16:38:24.462Z,102099.94
2022-10-03T16:41:24.510Z,102096.03
2022-10-03T16:44:20.930Z,102099.25
2022-10-03T16:47:07.978Z,102086.91
2022-10-03T16:50:16.406Z,102091.34
2022-10-03T16:53:07.759Z,102088.75
2022-10-03T16:56:04.647Z,102091.94
2022-10-03T16:58:55.837Z,102084.53
2022-10-03T17:01:50.706Z,102084.38
2022-10-03T17:04:43.485Z,102082.66
2022-10-03T17:07:35.984Z,102077.41
2022-10-03T17:10:32.474Z,102083.28
2022-10-03T17:13:38.446Z,102075.06
2022-10-03T17:16:29.504Z,102079.09
2022-10-03T17:19:20.538Z,102075.25
2022-10-03T17:22:10.612Z,102067.84
2022-10-03T17:25:04.602Z,102069.03
2022-10-03T17:27:51.781Z,102079.06
2022-10-03T17:30:47.182Z,102087.41
2022-10-03T17:33:46.309Z,102080.06
2022-10-03T17:37:03.206Z,102069.38
2022-10-03T17:39:58.664Z,102073.06
2022-10-03T17:42:52.489Z,102067.88
2022-10-03T17:45:51.978Z,102064.72
2022-10-03T17:48:41.257Z,102067.47
2022-10-03T17:51:35.037Z,102062.69
2022-10-03T17:54:33.644Z,102067.31
2022-10-03T17:57:25.213Z,102062.97
2022-10-03T18:00:27.535Z,102064.22
2022-10-03T18:03:44.722Z,102054.38
2022-10-03T18:06:29.798Z,102046.91
2022-10-03T18:09:15.004Z,102050.06
2022-10-03T18:12:12.066Z,102055.63
2022-10-03T18:15:16.233Z,102064.78
2022-10-03T18:18:26.270Z,102056.13
2022-10-03T18:21:30.568Z,102053.78
2022-10-03T18:24:43.299Z,102054.06
2022-10-03T18:28:04.810Z,102052.84
2022-10-03T18:30:57.178Z,102053.91
2022-10-03T18:34:14.181Z,102057.69
2022-10-03T18:37:04.119Z,102047.41
2022-10-03T18:39:54.369Z,102055.53
2022-10-03T18:42:40.633Z,102051.50
2022-10-03T18:45:44.624Z,102053.75
2022-10-03T18:48:35.219Z,102048.75
2022-10-03T18:51:32.083Z,102053.06
2022-10-03T18:54:35.237Z,102038.59
2022-10-03T18:57:34.113Z,102055.44
2022-10-03T19:00:25.234Z,102059.47
2022-10-03T19:03:17.509Z,102055.72
2022-10-03T19:06:33.355Z,102057.78
2022-10-03T19:09:22.238Z,102055.03
2022-10-03T19:12:24.094Z,102060.97
2022-10-03T19:15:22.517Z,102059.56
2022-10-03T19:18:27.835Z,102057.56
2022-10-03T19:21:18.922Z,102066.28
2022-10-03T19:24:17.566Z,102059.34
2022-10-03T19:27:12.001Z,102057.81
2022-10-03T19:29:59.007Z,102063.97
2022-10-03T19:32:52.505Z,102058.13
2022-10-03T19:35:45.190Z,102052.84
2022-10-03T19:38:37.706Z,102059.31
2022-10-03T19:41:36.758Z,102042.09
2022-10-03T19:44:25.950Z,102045.75
2022-10-03T19:47:19.139Z,102050.91
2022-10-03T19:50:19.107Z,102056.44
2022-10-03T19:53:18.479Z,102043.91
2022-10-03T19:56:04.541Z,102049.31
2022-10-03T19:59:04.236Z,102044.81
2022-10-03T20:01:50.212Z,102043.13
2022-10-03T20:04:37.125Z,102049.41
2022-10-03T20:07:36.665Z,102048.66
2022-10-03T20:10:43.754Z,102039.59
2022-10-03T20:13:42.478Z,102039.94
2022-10-03T20:16:33.193Z,102032.47
2022-10-03T20:19:25.160Z,102023.81
2022-10-03T20:22:13.494Z,102031.09
2022-10-03T20:25:00.225Z,102025.78
2022-10-03T20:27:51.859Z,102023.97
2022-10-03T20:30:40.367Z,102010.56
2022-10-03T20:33:31.611Z,102010.41
2022-10-03T20:36:25.836Z,102010.03
2022-10-03T20:39:17.729Z,102008.34
2022-10-03T20:42:26.161Z,102008.25
2022-10-03T20:45:29.363Z,102001.38
2022-10-03T20:48:20.557Z,102012.84
2022-10-03T20:51:05.570Z,102006.22
2022-10-03T20:53:54.723Z,102011.41
2022-10-03T20:56:51.525Z,102011.31
2022-10-03T21:00:10.277Z,102010.28
2022-10-03T21:03:04.059Z,102014.81
2022-10-03T21:05:55.180Z,102002.69
2022-10-03T21:08:41.665Z,102006.66
2022-10-03T21:11:32.934Z,101998.47
2022-10-03T21:14:25.546Z,101990.38
2022-10-03T21:17:16.133Z,101982.81
2022-10-03T21:20:07.635Z,101973.47
2022-10-03T21:22:59.604Z,101966.72
2022-10-03T21:25:45.413Z,101965.41
2022-10-03T21:28:32.794Z,101968.88
2022-10-03T21:31:35.225Z,101952.72
2022-10-03T21:34:33.574Z,101957.88
2022-10-03T21:37:31.066Z,101949.41
2022-10-03T21:40:32.647Z,101954.84
2022-10-03T21:43:39.849Z,101953.16
2022-10-03T21:46:37.621Z,101957.56
2022-10-03T21:49:32.119Z,101948.00
2022-10-03T21:52:32.441Z,101950.19
2022-10-03T21:55:51.818Z,101945.38
2022-10-03T21:58:53.255Z,101939.44
2022-10-03T22:01:52.948Z,101933.66
2022-10-03T22:04:48.649Z,101930.53
2022-10-03T22:07:42.270Z,101935.50
2022-10-03T22:10:32.064Z,101936.38
2022-10-03T22:13:19.083Z,101934.00
2022-10-03T22:16:14.544Z,101934.06
2022-10-03T22:19:05.578Z,101930.59
2022-10-03T22:22:06.027Z,101931.44
2022-10-03T22:24:57.318Z,101927.06
2022-10-03T22:27:54.541Z,101922.03
2022-10-03T22:30:50.451Z,101924.50
2022-10-03T22:33:54.135Z,101903.91
2022-10-03T22:36:40.603Z,101909.09
2022-10-03T22:39:26.625Z,101905.69
2022-10-03T22:42:14.909Z,101895.69
2022-10-03T22:45:02.990Z,101892.91
2022-10-03T22:47:52.782Z,101901.81
2022-10-03T22:50:41.536Z,101892.47
2022-10-03T22:53:31.935Z,101879.59
2022-10-03T22:56:42.500Z,101880.00
2022-10-03T22:59:31.404Z,101883.41
2022-10-03T23:02:18.735Z,101875.53
2022-10-03T23:05:09.654Z,101863.66
2022-10-03T23:08:09.956Z,101863.66
2022-10-03T23:11:08.608Z,101859.38
2022-10-03T23:13:56.230Z,101851.72
2022-10-03T23:16:56.162Z,101838.94
2022-10-03T23:20:02.426Z,101850.72
2022-10-03T23:22:54.229Z,101844.69
2022-10-03T23:25:58.717Z,101842.41
2022-10-03T23:29:14.848Z,101833.16
2022-10-03T23:31:59.787Z,101837.91
2022-10-03T23:34:46.351Z,101836.97
2022-10-03T23:37:40.581Z,101833.75
2022-10-03T23:40:39.897Z,101829.50
2022-10-03T23:43:26.358Z,101823.59
2022-10-03T23:46:15.245Z,101824.84
2022-10-03T23:49:01.909Z,101821.56
2022-10-03T23:51:48.246Z,101815.47
2022-10-03T23:54:33.481Z,101816.97
2022-10-03T23:57:20.198Z,101820.59
